createdAt,value
2023-02-18T00:01:42.996Z,7.84
2023-02-18T00:04:11.283Z,7.82
2023-02-18T00:06:40.001Z,7.82
2023-02-18T00:09:08.426Z,7.80
2023-02-18T00:11:37.463Z,7.79
2023-02-18T00:14:08.259Z,7.77
2023-02-18T00:16:36.858Z,7.74
2023-02-18T00:19:07.008Z,7.71
2023-02-18T00:21:36.419Z,7.66
2023-02-18T00:24:05.900Z,7.63
2023-02-18T00:26:35.103Z,7.59
2023-02-18T00:29:04.611Z,7.56
2023-02-18T00:31:35.517Z,7.54
2023-02-18T00:34:05.254Z,7.53
2023-02-18T00:36:34.610Z,7.51
2023-02-18T00:39:05.029Z,7.48
2023-02-18T00:41:36.092Z,7.47
2023-02-18T00:44:04.635Z,7.47
2023-02-18T00:46:34.170Z,7.45
2023-02-18T00:49:03.440Z,7.45
2023-02-18T00:51:32.101Z,7.44
2023-02-18T00:54:00.527Z,7.43
2023-02-18T00:56:29.326Z,7.42
2023-02-18T00:58:57.895Z,7.40
2023-02-18T01:01:27.364Z,7.37
2023-02-18T01:03:55.675Z,7.35
2023-02-18T01:06:30.797Z,7.32
2023-02-18T01:09:07.992Z,7.31
2023-02-18T01:11:36.702Z,7.31
2023-02-18T01:14:05.136Z,7.31
2023-02-18T01:16:33.591Z,7.30
2023-02-18T01:19:01.946Z,7.28
2023-02-18T01:21:30.334Z,7.26
2023-02-18T01:23:59.147Z,7.26
2023-02-18T01:26:27.508Z,7.25
2023-02-18T01:28:55.804Z,7.23
2023-02-18T01:31:24.214Z,7.21
2023-02-18T01:33:52.835Z,7.21
2023-02-18T01:36:22.232Z,7.19
2023-02-18T01:38:50.503Z,7.19
2023-02-18T01:41:18.844Z,7.18
2023-02-18T01:43:47.520Z,7.18
2023-02-18T01:46:18.978Z,7.18
2023-02-18T01:48:51.906Z,7.18
2023-02-18T01:51:23.967Z,7.18
2023-02-18T01:53:56.420Z,7.18
2023-02-18T01:56:29.209Z,7.18
2023-02-18T01:59:00.039Z,7.18
2023-02-18T02:01:28.680Z,7.19
2023-02-18T02:03:56.958Z,7.18
2023-02-18T02:06:26.201Z,7.18
2023-02-18T02:09:00.908Z,7.17
2023-02-18T02:11:45.993Z,7.17
2023-02-18T02:14:28.803Z,7.17
2023-02-18T02:17:05.339Z,7.15
2023-02-18T02:20:02.229Z,7.12
2023-02-18T02:23:08.660Z,7.09
2023-02-18T02:25:45.890Z,7.05
2023-02-18T02:28:43.241Z,7.00
2023-02-18T02:31:45.325Z,6.95
2023-02-18T02:34:58.508Z,6.91
2023-02-18T02:37:36.523Z,6.87
2023-02-18T02:40:19.085Z,6.84
2023-02-18T02:42:59.959Z,6.83
2023-02-18T02:45:41.422Z,6.80
2023-02-18T02:48:21.338Z,6.79
2023-02-18T02:50:54.795Z,6.77
2023-02-18T02:53:27.097Z,6.76
2023-02-18T02:55:55.609Z,6.74
2023-02-18T02:58:24.663Z,6.73
2023-02-18T03:01:24.851Z,6.73
2023-02-18T03:04:09.779Z,6.73
2023-02-18T03:06:57.851Z,6.72
2023-02-18T03:09:38.575Z,6.71
2023-02-18T03:12:13.246Z,6.69
2023-02-18T03:14:48.486Z,6.68
2023-02-18T03:17:21.787Z,6.68
2023-02-18T03:19:55.504Z,6.67
2023-02-18T03:22:29.149Z,6.67
2023-02-18T03:24:59.827Z,6.66
2023-02-18T03:27:33.336Z,6.65
2023-02-18T03:30:07.479Z,6.63
2023-02-18T03:32:37.616Z,6.62
2023-02-18T03:35:12.990Z,6.61
2023-02-18T03:37:47.944Z,6.60
2023-02-18T03:40:27.170Z,6.59
2023-02-18T03:42:58.519Z,6.59
2023-02-18T03:45:27.567Z,6.58
2023-02-18T03:47:56.036Z,6.58
2023-02-18T03:50:27.656Z,6.58
2023-02-18T03:52:55.925Z,6.57
2023-02-18T03:55:24.233Z,6.57
2023-02-18T03:57:54.278Z,6.56
2023-02-18T04:00:28.439Z,6.56
2023-02-18T04:03:02.247Z,6.54
2023-02-18T04:05:57.301Z,6.53
2023-02-18T04:08:43.559Z,6.51
2023-02-18T04:11:32.038Z,6.50
2023-02-18T04:14:27.889Z,6.47
2023-02-18T04:16:58.167Z,6.46
2023-02-18T04:19:26.470Z,6.45
2023-02-18T04:21:54.688Z,6.43
2023-02-18T04:24:22.932Z,6.41
2023-02-18T04:26:51.481Z,6.40
2023-02-18T04:29:19.758Z,6.38
2023-02-18T04:31:48.090Z,6.38
2023-02-18T04:34:16.404Z,6.36
2023-02-18T04:36:44.656Z,6.34
2023-02-18T04:39:12.969Z,6.32
2023-02-18T04:41:41.350Z,6.31
2023-02-18T04:44:09.591Z,6.29
2023-02-18T04:46:38.869Z,6.28
2023-02-18T04:49:07.092Z,6.26
2023-02-18T04:51:37.102Z,6.27
2023-02-18T04:54:06.011Z,6.27
2023-02-18T04:56:34.500Z,6.26
2023-02-18T04:59:02.758Z,6.26
2023-02-18T05:01:31.107Z,6.25
2023-02-18T05:03:59.480Z,6.25
2023-02-18T05:06:27.761Z,6.25
2023-02-18T05:08:55.984Z,6.26
2023-02-18T05:11:24.387Z,6.25
2023-02-18T05:13:52.628Z,6.24
2023-02-18T05:16:20.826Z,6.23
2023-02-18T05:18:49.035Z,6.21
2023-02-18T05:21:17.306Z,6.20
2023-02-18T05:23:45.535Z,6.20
2023-02-18T05:26:13.849Z,6.20
2023-02-18T05:28:42.055Z,6.19
2023-02-18T05:31:10.394Z,6.18
2023-02-18T05:33:38.773Z,6.17
2023-02-18T05:36:08.519Z,6.15
2023-02-18T05:38:36.966Z,6.13
2023-02-18T05:41:05.559Z,6.11
2023-02-18T05:43:54.272Z,6.09
2023-02-18T05:46:22.678Z,6.09
2023-02-18T05:48:50.924Z,6.07
2023-02-18T05:51:19.430Z,6.07
2023-02-18T05:53:47.722Z,6.06
2023-02-18T05:56:15.979Z,6.06
2023-02-18T05:58:44.579Z,6.06
2023-02-18T06:01:13.039Z,6.05
2023-02-18T06:03:41.240Z,6.05
2023-02-18T06:06:09.693Z,6.05
2023-02-18T06:08:38.292Z,6.05
2023-02-18T06:11:06.587Z,6.06
2023-02-18T06:13:35.126Z,6.05
2023-02-18T06:16:03.452Z,6.06
2023-02-18T06:18:31.671Z,6.05
2023-02-18T06:20:59.925Z,6.06
2023-02-18T06:23:28.208Z,6.06
2023-02-18T06:25:56.430Z,6.07
2023-02-18T06:28:24.617Z,6.08
2023-02-18T06:30:53.151Z,6.08
2023-02-18T06:33:21.551Z,6.09
2023-02-18T06:35:58.360Z,6.09
2023-02-18T06:38:27.172Z,6.10
2023-02-18T06:40:55.796Z,6.11
2023-02-18T06:43:23.960Z,6.10
2023-02-18T06:45:52.318Z,6.12
2023-02-18T06:48:21.125Z,6.12
2023-02-18T06:50:50.375Z,6.12
2023-02-18T06:53:18.702Z,6.12
2023-02-18T06:55:47.029Z,6.14
2023-02-18T06:58:16.180Z,6.16
2023-02-18T07:00:44.686Z,6.18
2023-02-18T07:03:14.067Z,6.20
2023-02-18T07:05:42.329Z,6.23
2023-02-18T07:08:10.596Z,6.27
2023-02-18T07:10:39.075Z,6.39
2023-02-18T07:13:07.333Z,6.45
2023-02-18T07:15:35.675Z,6.50
2023-02-18T07:18:04.571Z,6.56
2023-02-18T07:20:32.974Z,6.71
2023-02-18T07:23:01.358Z,6.90
2023-02-18T07:25:29.535Z,7.46
2023-02-18T07:27:57.820Z,7.88
2023-02-18T07:30:26.862Z,7.99
2023-02-18T07:32:55.752Z,7.95
2023-02-18T07:35:24.103Z,7.94
2023-02-18T07:37:52.498Z,7.99
2023-02-18T07:40:22.201Z,8.43
2023-02-18T07:42:52.231Z,8.70
2023-02-18T07:45:20.766Z,9.22
2023-02-18T07:47:49.214Z,9.67
2023-02-18T07:50:27.686Z,9.64
2023-02-18T07:52:56.574Z,9.53
2023-02-18T07:55:24.937Z,9.60
2023-02-18T07:58:01.606Z,9.62
2023-02-18T08:00:29.997Z,9.47
2023-02-18T08:02:59.410Z,9.30
2023-02-18T08:05:28.845Z,9.14
2023-02-18T08:07:57.633Z,8.99
2023-02-18T08:10:25.912Z,8.83
2023-02-18T08:12:56.074Z,8.66
2023-02-18T08:15:24.298Z,8.52
2023-02-18T08:17:53.120Z,8.39
2023-02-18T08:20:21.840Z,8.30
2023-02-18T08:22:50.162Z,8.25
2023-02-18T08:25:29.532Z,8.23
2023-02-18T08:27:58.314Z,8.21
2023-02-18T08:30:27.154Z,8.22
2023-02-18T08:32:55.568Z,8.40
2023-02-18T08:35:24.088Z,8.50
2023-02-18T08:37:54.185Z,8.54
2023-02-18T08:40:23.188Z,8.57
2023-02-18T08:42:51.438Z,8.59
2023-02-18T08:45:20.217Z,8.58
2023-02-18T08:48:16.969Z,8.55
2023-02-18T08:50:36.936Z,8.53
2023-02-18T08:53:05.451Z,8.59
2023-02-18T08:55:48.078Z,8.60
2023-02-18T08:58:16.726Z,8.63
2023-02-18T09:00:45.829Z,8.60
2023-02-18T09:03:15.322Z,8.62
2023-02-18T09:05:43.722Z,8.64
2023-02-18T09:08:12.019Z,8.67
2023-02-18T09:10:40.262Z,8.71
2023-02-18T09:13:08.443Z,8.78
2023-02-18T09:15:36.874Z,8.83
2023-02-18T09:18:05.441Z,8.84
2023-02-18T09:20:33.631Z,8.87
2023-02-18T09:23:03.211Z,8.91
2023-02-18T09:25:31.386Z,8.96
2023-02-18T09:28:02.452Z,8.95
2023-02-18T09:30:30.823Z,8.92
2023-02-18T09:32:59.083Z,8.86
2023-02-18T09:35:27.333Z,8.76
2023-02-18T09:37:55.544Z,8.71
2023-02-18T09:40:29.353Z,8.69
2023-02-18T09:42:59.022Z,8.66
2023-02-18T09:45:28.230Z,8.63
2023-02-18T09:47:57.795Z,8.61
2023-02-18T09:50:30.191Z,8.59
2023-02-18T09:53:01.445Z,8.57
2023-02-18T09:55:33.496Z,8.56
2023-02-18T09:58:04.619Z,8.53
2023-02-18T10:00:36.365Z,8.51
2023-02-18T10:03:07.755Z,8.46
2023-02-18T10:05:40.712Z,8.42
2023-02-18T10:08:19.837Z,8.38
2023-02-18T10:10:48.879Z,8.37
2023-02-18T10:13:20.169Z,8.36
2023-02-18T10:15:50.294Z,8.34
2023-02-18T10:18:27.393Z,8.27
2023-02-18T10:21:04.805Z,8.25
2023-02-18T10:23:35.010Z,8.25
2023-02-18T10:26:06.693Z,8.28
2023-02-18T10:28:36.789Z,8.32
2023-02-18T10:31:10.295Z,8.40
2023-02-18T10:33:47.413Z,8.44
2023-02-18T10:36:24.984Z,8.47
2023-02-18T10:39:08.726Z,8.51
2023-02-18T10:41:47.228Z,8.55
2023-02-18T10:44:22.401Z,8.60
2023-02-18T10:46:59.962Z,8.64
2023-02-18T10:49:48.589Z,8.66
2023-02-18T10:52:19.377Z,8.65
2023-02-18T10:54:53.790Z,8.65
2023-02-18T10:57:24.814Z,8.66
2023-02-18T10:59:59.120Z,8.66
2023-02-18T11:02:30.921Z,8.64
2023-02-18T11:05:06.293Z,8.61
2023-02-18T11:07:38.612Z,8.57
2023-02-18T11:10:17.068Z,8.53
2023-02-18T11:12:48.931Z,8.51
2023-02-18T11:15:23.816Z,8.47
2023-02-18T11:17:53.817Z,8.44
2023-02-18T11:20:26.711Z,8.41
2023-02-18T11:22:59.338Z,8.39
2023-02-18T11:25:32.962Z,8.38
2023-02-18T11:28:05.290Z,8.38
2023-02-18T11:30:36.965Z,8.38
2023-02-18T11:33:09.574Z,8.39
2023-02-18T11:35:38.550Z,8.39
2023-02-18T11:38:23.185Z,8.39
2023-02-18T11:40:57.597Z,8.40
2023-02-18T11:43:30.624Z,8.39
2023-02-18T11:46:10.492Z,8.39
2023-02-18T11:48:39.193Z,8.41
2023-02-18T11:51:17.350Z,8.45
2023-02-18T11:54:01.467Z,8.50
2023-02-18T11:56:33.404Z,8.55
2023-02-18T11:59:03.544Z,8.60
2023-02-18T12:01:45.338Z,8.63
2023-02-18T12:04:16.636Z,8.63
2023-02-18T12:06:52.657Z,8.66
2023-02-18T12:09:28.543Z,8.70
2023-02-18T12:12:00.407Z,8.72
2023-02-18T12:14:29.302Z,8.75
2023-02-18T12:17:30.911Z,8.79
2023-02-18T12:20:26.881Z,8.83
2023-02-18T12:23:03.583Z,8.85
2023-02-18T12:25:40.508Z,8.87
2023-02-18T12:28:29.335Z,8.86
2023-02-18T12:31:17.577Z,8.84
2023-02-18T12:33:58.040Z,8.82
2023-02-18T12:36:40.345Z,8.81
2023-02-18T12:39:21.997Z,8.82
2023-02-18T12:42:03.261Z,8.86
2023-02-18T12:44:45.143Z,8.89
2023-02-18T12:47:31.647Z,8.91
2023-02-18T12:50:33.771Z,8.93
2023-02-18T12:53:20.451Z,8.98
2023-02-18T12:56:01.875Z,9.00
2023-02-18T12:58:42.497Z,8.99
2023-02-18T13:01:29.354Z,8.96
2023-02-18T13:04:32.079Z,8.94
2023-02-18T13:07:32.161Z,8.89
2023-02-18T13:10:20.156Z,8.87
2023-02-18T13:12:57.856Z,8.84
2023-02-18T13:15:39.149Z,8.84
2023-02-18T13:18:13.571Z,8.83
2023-02-18T13:20:45.504Z,8.80
2023-02-18T13:23:20.181Z,8.74
2023-02-18T13:25:54.923Z,8.67
2023-02-18T13:28:30.546Z,8.62
2023-02-18T13:31:14.037Z,8.56
2023-02-18T13:33:51.698Z,8.49
2023-02-18T13:36:34.203Z,8.43
2023-02-18T13:39:06.861Z,8.39
2023-02-18T13:41:39.938Z,8.36
2023-02-18T13:44:53.026Z,8.33
2023-02-18T13:47:39.810Z,8.23
2023-02-18T13:50:42.084Z,8.16
2023-02-18T13:53:22.740Z,8.11
2023-02-18T13:56:03.290Z,8.07
2023-02-18T13:58:37.640Z,8.03
2023-02-18T14:01:14.475Z,8.00
2023-02-18T14:03:58.365Z,7.96
2023-02-18T14:06:28.783Z,7.90
2023-02-18T14:09:36.712Z,7.86
2023-02-18T14:12:25.235Z,7.83
2023-02-18T14:14:53.976Z,7.80
2023-02-18T14:17:42.118Z,7.76
2023-02-18T14:20:30.888Z,7.72
2023-02-18T14:22:59.492Z,7.66
2023-02-18T14:25:37.064Z,7.64
2023-02-18T14:28:39.877Z,7.60
2023-02-18T14:31:34.029Z,7.55
2023-02-18T14:34:24.955Z,7.51
2023-02-18T14:37:03.908Z,7.47
2023-02-18T14:39:45.333Z,7.44
2023-02-18T14:42:28.721Z,7.43
2023-02-18T14:45:13.767Z,7.43
2023-02-18T14:47:56.178Z,7.42
2023-02-18T14:50:24.926Z,7.42
2023-02-18T14:52:57.546Z,7.43
2023-02-18T14:55:30.268Z,7.43
2023-02-18T14:58:02.692Z,7.43
2023-02-18T15:00:38.971Z,7.43
2023-02-18T15:03:15.843Z,7.42
2023-02-18T15:05:45.227Z,7.37
2023-02-18T15:08:17.773Z,7.32
2023-02-18T15:10:49.125Z,7.27
2023-02-18T15:13:23.796Z,7.21
2023-02-18T15:15:54.725Z,7.16
2023-02-18T15:18:32.239Z,7.09
2023-02-18T15:21:02.534Z,7.01
2023-02-18T15:23:31.910Z,6.92
2023-02-18T15:26:00.217Z,6.86
2023-02-18T15:28:30.418Z,6.79
2023-02-18T15:31:00.297Z,6.75
2023-02-18T15:33:29.313Z,6.71
2023-02-18T15:36:03.316Z,6.67
2023-02-18T15:38:32.264Z,6.61
2023-02-18T15:41:01.635Z,6.53
2023-02-18T15:43:31.617Z,6.45
2023-02-18T15:45:59.869Z,6.37
2023-02-18T15:48:33.536Z,6.30
2023-02-18T15:51:17.016Z,6.21
2023-02-18T15:53:50.819Z,6.11
2023-02-18T15:56:26.493Z,6.06
2023-02-18T15:59:09.564Z,6.02
2023-02-18T16:01:37.949Z,5.99
2023-02-18T16:04:08.224Z,5.98
2023-02-18T16:06:39.586Z,5.96
2023-02-18T16:09:16.990Z,5.95
2023-02-18T16:11:48.327Z,5.94
2023-02-18T16:14:29.809Z,5.94
2023-02-18T16:17:16.177Z,5.94
2023-02-18T16:20:03.379Z,5.94
2023-02-18T16:22:42.939Z,5.94
2023-02-18T16:25:17.295Z,5.93
2023-02-18T16:27:51.852Z,5.93
2023-02-18T16:30:22.532Z,5.92
2023-02-18T16:32:54.214Z,5.92
2023-02-18T16:35:24.751Z,5.93
2023-02-18T16:37:53.924Z,5.93
2023-02-18T16:40:30.890Z,5.93
2023-02-18T16:43:01.478Z,5.92
2023-02-18T16:45:36.233Z,5.91
2023-02-18T16:48:05.791Z,5.89
2023-02-18T16:50:34.878Z,5.88
2023-02-18T16:53:03.186Z,5.87
2023-02-18T16:55:35.707Z,5.86
2023-02-18T16:58:04.059Z,5.86
2023-02-18T17:00:32.762Z,5.87
2023-02-18T17:03:01.907Z,5.88
2023-02-18T17:05:36.022Z,5.88
2023-02-18T17:08:16.458Z,5.88
2023-02-18T17:10:44.873Z,5.88
2023-02-18T17:13:16.191Z,5.89
2023-02-18T17:15:47.578Z,5.90
2023-02-18T17:18:16.267Z,5.91
2023-02-18T17:20:47.827Z,5.92
2023-02-18T17:23:16.928Z,5.92
2023-02-18T17:25:45.330Z,5.92
2023-02-18T17:28:16.272Z,5.92
2023-02-18T17:30:48.429Z,5.93
2023-02-18T17:33:18.871Z,5.92
2023-02-18T17:35:47.306Z,5.91
2023-02-18T17:38:19.662Z,5.92
2023-02-18T17:40:49.438Z,5.92
2023-02-18T17:43:22.581Z,5.92
2023-02-18T17:45:54.377Z,5.92
2023-02-18T17:48:23.287Z,5.91
2023-02-18T17:50:54.261Z,5.90
2023-02-18T17:53:23.643Z,5.88
2023-02-18T17:55:52.717Z,5.86
2023-02-18T17:58:21.152Z,5.83
2023-02-18T18:00:54.949Z,5.80
2023-02-18T18:03:24.019Z,5.79
2023-02-18T18:05:53.963Z,5.79
2023-02-18T18:08:22.557Z,5.78
2023-02-18T18:10:54.273Z,5.78
2023-02-18T18:13:24.842Z,5.78
2023-02-18T18:15:58.077Z,5.77
2023-02-18T18:18:30.761Z,5.76
2023-02-18T18:21:01.208Z,5.75
2023-02-18T18:23:29.918Z,5.74
2023-02-18T18:25:59.700Z,5.72
2023-02-18T18:28:31.853Z,5.72
2023-02-18T18:31:01.969Z,5.71
2023-02-18T18:33:32.732Z,5.70
2023-02-18T18:37:02.480Z,5.67
2023-02-18T18:39:53.728Z,5.64
2023-02-18T18:42:22.638Z,5.62
2023-02-18T18:44:51.781Z,5.59
2023-02-18T18:47:23.457Z,5.56
2023-02-18T18:50:12.983Z,5.52
2023-02-18T18:52:43.051Z,5.46
2023-02-18T18:55:24.723Z,5.42
2023-02-18T18:57:55.962Z,5.37
2023-02-18T19:00:27.093Z,5.35
2023-02-18T19:02:55.827Z,5.34
2023-02-18T19:05:28.302Z,5.33
2023-02-18T19:07:58.194Z,5.32
2023-02-18T19:10:30.353Z,5.30
2023-02-18T19:13:07.992Z,5.29
2023-02-18T19:15:36.426Z,5.27
2023-02-18T19:18:06.197Z,5.25
2023-02-18T19:20:35.688Z,5.23
2023-02-18T19:23:05.294Z,5.22
2023-02-18T19:25:47.260Z,5.21
2023-02-18T19:28:15.862Z,5.21
2023-02-18T19:30:45.780Z,5.24
2023-02-18T19:33:17.173Z,5.25
2023-02-18T19:35:45.639Z,5.26
2023-02-18T19:38:16.338Z,5.24
2023-02-18T19:40:46.013Z,5.24
2023-02-18T19:43:14.933Z,5.22
2023-02-18T19:45:47.175Z,5.19
2023-02-18T19:48:20.295Z,5.19
2023-02-18T19:50:48.742Z,5.19
2023-02-18T19:53:17.093Z,5.18
2023-02-18T19:55:45.517Z,5.18
2023-02-18T19:58:14.078Z,5.19
2023-02-18T20:00:43.172Z,5.20
2023-02-18T20:03:11.652Z,5.21
2023-02-18T20:05:40.168Z,5.22
2023-02-18T20:08:08.753Z,5.25
2023-02-18T20:10:37.331Z,5.27
2023-02-18T20:13:10.792Z,5.28
2023-02-18T20:15:40.293Z,5.27
2023-02-18T20:18:08.990Z,5.27
2023-02-18T20:20:37.615Z,5.28
2023-02-18T20:23:07.609Z,5.29
2023-02-18T20:25:40.981Z,5.28
2023-02-18T20:28:09.576Z,5.27
2023-02-18T20:30:44.252Z,5.27
2023-02-18T20:33:12.551Z,5.25
2023-02-18T20:35:40.733Z,5.24
2023-02-18T20:38:08.907Z,5.24
2023-02-18T20:40:37.152Z,5.22
2023-02-18T20:43:06.801Z,5.22
2023-02-18T20:45:34.963Z,5.21
2023-02-18T20:48:05.359Z,5.22
2023-02-18T20:50:33.607Z,5.22
2023-02-18T20:53:04.063Z,5.24
2023-02-18T20:55:32.286Z,5.25
2023-02-18T20:58:00.550Z,5.24
2023-02-18T21:00:28.858Z,5.25
2023-02-18T21:02:57.039Z,5.24
2023-02-18T21:05:25.376Z,5.25
2023-02-18T21:07:53.542Z,5.24
2023-02-18T21:10:23.753Z,5.25
2023-02-18T21:12:51.989Z,5.25
2023-02-18T21:15:20.209Z,5.24
2023-02-18T21:17:48.439Z,5.23
2023-02-18T21:20:17.024Z,5.21
2023-02-18T21:22:45.307Z,5.21
2023-02-18T21:25:13.598Z,5.20
2023-02-18T21:27:42.206Z,5.21
2023-02-18T21:30:11.983Z,5.20
2023-02-18T21:32:40.154Z,5.21
2023-02-18T21:35:08.570Z,5.21
2023-02-18T21:37:36.835Z,5.21
2023-02-18T21:40:06.048Z,5.16
2023-02-18T21:42:34.671Z,5.13
2023-02-18T21:45:03.710Z,5.08
2023-02-18T21:47:31.880Z,5.02
2023-02-18T21:50:02.929Z,4.96
2023-02-18T21:52:31.808Z,4.91
2023-02-18T21:55:00.021Z,4.86
2023-02-18T21:57:28.257Z,4.79
2023-02-18T22:00:01.740Z,4.73
2023-02-18T22:02:40.860Z,4.66
2023-02-18T22:05:09.606Z,4.59
2023-02-18T22:07:37.934Z,4.55
2023-02-18T22:10:07.371Z,4.48
2023-02-18T22:12:35.824Z,4.42
2023-02-18T22:15:04.879Z,4.36
2023-02-18T22:17:33.198Z,4.30
2023-02-18T22:20:01.722Z,4.24
2023-02-18T22:22:30.017Z,4.18
2023-02-18T22:24:58.281Z,4.13
2023-02-18T22:27:26.605Z,4.08
2023-02-18T22:29:54.843Z,4.02
2023-02-18T22:32:23.664Z,3.96
2023-02-18T22:34:52.728Z,3.92
2023-02-18T22:37:20.953Z,3.87
2023-02-18T22:39:50.477Z,3.83
2023-02-18T22:42:18.737Z,3.80
2023-02-18T22:44:47.037Z,3.77
2023-02-18T22:47:15.265Z,3.73
2023-02-18T22:49:43.692Z,3.69
2023-02-18T22:52:11.986Z,3.63
2023-02-18T22:54:40.294Z,3.61
2023-02-18T22:57:08.505Z,3.59
2023-02-18T22:59:36.793Z,3.61
2023-02-18T23:02:04.966Z,3.61
2023-02-18T23:04:33.241Z,3.62
2023-02-18T23:07:01.580Z,3.62
2023-02-18T23:09:31.359Z,3.63
2023-02-18T23:11:59.605Z,3.64
2023-02-18T23:14:29.842Z,3.66
2023-02-18T23:17:17.214Z,3.68
2023-02-18T23:19:49.067Z,3.72
2023-02-18T23:22:22.436Z,3.75
2023-02-18T23:24:50.886Z,3.78
2023-02-18T23:27:20.856Z,3.80
2023-02-18T23:29:49.244Z,3.82
2023-02-18T23:32:18.158Z,3.82
2023-02-18T23:34:46.417Z,3.83
2023-02-18T23:37:14.720Z,3.84
2023-02-18T23:39:47.086Z,3.85
2023-02-18T23:42:16.452Z,3.88
2023-02-18T23:44:49.553Z,3.89
2023-02-18T23:47:17.902Z,3.89
2023-02-18T23:49:46.031Z,3.89
2023-02-18T23:52:14.262Z,3.88
2023-02-18T23:54:43.808Z,3.89
2023-02-18T23:57:12.048Z,3.89
2023-02-18T23:59:41.736Z,3.90
